createdAt,value
2022-12-24T00:01:35.391Z,77069.1
2022-12-24T00:05:35.546Z,77069.1
2022-12-24T00:09:32.691Z,77069.1
2022-12-24T00:13:32.577Z,77069.1
2022-12-24T00:17:32.772Z,77069.1
2022-12-24T00:21:32.329Z,77069.1
2022-12-24T00:25:31.948Z,77069.1
2022-12-24T00:29:31.535Z,77069.1
2022-12-24T00:33:36.138Z,77069.1
2022-12-24T00:37:31.974Z,77069.1
2022-12-24T00:41:31.460Z,77069.1
2022-12-24T00:45:32.315Z,77069.1
2022-12-24T00:49:32.061Z,77069.1
2022-12-24T00:53:31.970Z,77069.1
2022-12-24T00:57:31.652Z,77069.1
2022-12-24T01:01:37.636Z,77069.1
2022-12-24T01:05:32.030Z,77069.1
2022-12-24T01:09:31.481Z,77069.1
2022-12-24T01:13:32.347Z,77069.1
2022-12-24T01:17:32.376Z,77069.1
2022-12-24T01:21:31.756Z,77069.1
2022-12-24T01:25:31.378Z,77069.1
2022-12-24T01:29:32.193Z,77069.1
2022-12-24T01:33:32.192Z,77069.1
2022-12-24T01:37:31.650Z,77069.1
2022-12-24T01:41:31.789Z,77069.1
2022-12-24T01:45:37.301Z,77069.1
2022-12-24T01:49:32.228Z,77069.1
2022-12-24T01:53:32.136Z,77069.1
2022-12-24T01:57:32.572Z,77069.1
2022-12-24T02:01:35.244Z,77069.1
2022-12-24T02:05:31.612Z,77069.1
2022-12-24T02:09:31.503Z,77069.1
2022-12-24T02:13:32.279Z,77069.1
2022-12-24T02:17:32.376Z,77069.1
2022-12-24T02:21:31.636Z,77069.1
2022-12-24T02:25:31.613Z,77069.1
2022-12-24T02:29:32.193Z,77069.1
2022-12-24T02:33:32.098Z,77069.1
2022-12-24T02:37:31.714Z,77069.1
2022-12-24T02:41:35.735Z,77069.1
2022-12-24T02:45:31.569Z,77069.1
2022-12-24T02:49:32.156Z,77069.1
2022-12-24T02:53:31.963Z,77069.1
2022-12-24T02:57:31.581Z,77069.1
2022-12-24T03:01:35.572Z,77069.1
2022-12-24T03:05:31.526Z,77069.1
2022-12-24T03:09:32.089Z,77069.1
2022-12-24T03:13:31.947Z,77069.1
2022-12-24T03:17:32.025Z,77069.1
2022-12-24T03:21:32.203Z,77069.1
2022-12-24T03:25:31.683Z,77069.1
2022-12-24T03:29:31.706Z,77069.1
2022-12-24T03:33:31.658Z,77069.1
2022-12-24T03:37:32.031Z,77069.1
2022-12-24T03:41:32.014Z,77069.1
2022-12-24T03:45:31.690Z,77069.1
2022-12-24T03:49:40.119Z,77069.1
2022-12-24T03:53:32.085Z,77069.1
2022-12-24T03:57:32.058Z,77069.1
2022-12-24T04:01:35.766Z,77069.1
2022-12-24T04:05:32.014Z,77069.1
2022-12-24T04:09:31.700Z,77069.1
2022-12-24T04:13:32.166Z,77069.1
2022-12-24T04:17:32.811Z,77069.1
2022-12-24T04:21:31.501Z,77069.1
2022-12-24T04:25:32.376Z,77069.1
2022-12-24T04:29:32.048Z,77069.1
2022-12-24T04:33:32.207Z,77069.1
2022-12-24T04:37:31.374Z,77069.1
2022-12-24T04:41:35.842Z,77069.1
2022-12-24T04:45:32.051Z,77069.1
2022-12-24T04:49:31.771Z,77069.1
2022-12-24T04:53:32.424Z,77069.1
2022-12-24T04:57:31.836Z,77069.1
2022-12-24T05:01:36.060Z,77069.1
2022-12-24T05:05:31.753Z,77069.1
2022-12-24T05:09:32.479Z,77069.1
2022-12-24T05:13:42.300Z,77069.1
2022-12-24T05:17:32.507Z,77069.1
2022-12-24T05:21:32.289Z,77069.1
2022-12-24T05:25:31.931Z,77069.1
2022-12-24T05:29:32.221Z,77069.1
2022-12-24T05:33:31.673Z,77069.1
2022-12-24T05:37:32.385Z,77069.1
2022-12-24T05:41:31.808Z,77069.1
2022-12-24T05:45:31.643Z,77069.1
2022-12-24T05:49:32.343Z,77069.1
2022-12-24T05:53:32.073Z,77069.1
2022-12-24T05:57:31.838Z,77069.1
2022-12-24T06:01:34.761Z,77069.1
2022-12-24T06:05:37.284Z,77069.1
2022-12-24T06:09:32.478Z,77069.1
2022-12-24T06:13:32.205Z,77069.1
2022-12-24T06:17:32.219Z,77069.1
2022-12-24T06:21:32.753Z,77069.1
2022-12-24T06:25:32.201Z,77069.1
2022-12-24T06:29:31.755Z,77069.1
2022-12-24T06:33:31.703Z,77069.1
2022-12-24T06:37:36.675Z,77069.1
2022-12-24T06:41:32.383Z,77069.1
2022-12-24T06:45:41.572Z,77069.1
2022-12-24T06:49:31.744Z,77069.1
2022-12-24T06:53:31.455Z,77069.1
2022-12-24T06:57:32.145Z,77069.1
2022-12-24T07:01:33.080Z,77069.1
2022-12-24T07:05:39.301Z,77069.1
2022-12-24T07:09:32.171Z,77069.1
2022-12-24T07:13:31.822Z,77069.1
2022-12-24T07:17:33.952Z,77069.1
2022-12-24T07:21:32.176Z,77069.1
2022-12-24T07:25:31.935Z,77069.1
2022-12-24T07:29:35.866Z,77069.1
2022-12-24T07:33:31.548Z,77069.1
2022-12-24T07:37:32.146Z,77069.1
2022-12-24T07:41:36.300Z,77069.1
2022-12-24T07:45:32.242Z,77069.1
2022-12-24T07:49:31.838Z,77069.1
2022-12-24T07:53:32.516Z,77069.1
2022-12-24T07:57:37.549Z,77069.1
2022-12-24T08:01:32.162Z,77069.1
2022-12-24T08:05:32.091Z,77069.1
2022-12-24T08:09:31.785Z,77069.1
2022-12-24T08:13:32.469Z,77069.1
2022-12-24T08:17:36.798Z,77069.1
2022-12-24T08:21:32.033Z,77069.1
2022-12-24T08:25:31.496Z,77069.1
2022-12-24T08:29:32.106Z,77069.1
2022-12-24T08:33:31.547Z,77069.1
2022-12-24T08:37:32.629Z,77069.1
2022-12-24T08:41:32.433Z,77069.1
2022-12-24T08:45:39.712Z,77069.1
2022-12-24T08:49:31.287Z,77069.1
2022-12-24T08:53:32.042Z,77069.1
2022-12-24T08:57:31.351Z,77069.1
2022-12-24T09:01:35.936Z,77069.1
2022-12-24T09:05:32.131Z,77069.1
2022-12-24T09:09:37.686Z,77069.1
2022-12-24T09:13:31.670Z,77069.1
2022-12-24T09:17:32.058Z,77069.1
2022-12-24T09:21:33.251Z,77069.1
2022-12-24T09:25:31.605Z,77069.1
2022-12-24T09:29:31.633Z,77069.1
2022-12-24T09:33:32.665Z,77069.1
2022-12-24T09:37:31.944Z,77069.1
2022-12-24T09:41:36.138Z,77069.1
2022-12-24T09:45:32.150Z,77069.1
2022-12-24T09:49:31.896Z,77069.1
2022-12-24T09:53:31.677Z,77069.1
2022-12-24T09:57:32.109Z,77069.1
2022-12-24T10:01:41.821Z,77069.1
2022-12-24T10:05:32.339Z,77069.1
2022-12-24T10:09:31.996Z,77069.1
2022-12-24T10:13:35.220Z,77069.1
2022-12-24T10:17:32.882Z,77069.1
2022-12-24T10:21:32.187Z,77069.1
2022-12-24T10:25:35.946Z,77069.1
2022-12-24T10:29:31.699Z,77069.1
2022-12-24T10:33:32.615Z,77069.1
2022-12-24T10:37:40.126Z,77069.1
2022-12-24T10:41:32.720Z,77069.1
2022-12-24T10:45:32.386Z,77069.1
2022-12-24T10:49:36.351Z,77069.1
2022-12-24T10:53:31.946Z,77069.1
2022-12-24T10:57:31.694Z,77069.1
2022-12-24T11:01:44.590Z,77069.1
2022-12-24T11:05:31.990Z,77069.1
2022-12-24T11:09:31.993Z,77069.1
2022-12-24T11:14:20.925Z,77069.1
2022-12-24T11:17:32.609Z,77069.1
2022-12-24T11:21:32.007Z,77069.1
2022-12-24T11:25:35.655Z,77069.1
2022-12-24T11:29:32.256Z,77069.1
2022-12-24T11:33:31.702Z,77069.1
2022-12-24T11:37:37.611Z,77069.1
2022-12-24T11:41:31.877Z,77069.1
2022-12-24T11:45:32.437Z,77069.1
2022-12-24T11:49:39.811Z,77069.1
2022-12-24T11:53:32.808Z,516346
2022-12-24T11:57:32.200Z,516346
2022-12-24T12:01:38.905Z,516346
2022-12-24T12:05:33.245Z,516346
2022-12-24T12:09:31.771Z,516346
2022-12-24T12:13:38.765Z,516346
2022-12-24T12:17:32.362Z,516346
2022-12-24T12:21:32.243Z,516346
2022-12-24T12:25:39.966Z,516346
2022-12-24T12:29:31.930Z,516346
2022-12-24T12:33:33.454Z,516346
2022-12-24T12:37:37.561Z,516346
2022-12-24T12:41:31.601Z,516346
2022-12-24T12:45:32.065Z,516346
2022-12-24T12:49:37.004Z,516346
2022-12-24T12:53:32.359Z,516346
2022-12-24T12:57:32.146Z,188598
2022-12-24T13:01:44.244Z,188598
2022-12-24T13:05:32.296Z,33542.7
2022-12-24T13:09:31.943Z,13367
2022-12-24T13:13:36.769Z,13367
2022-12-24T13:17:32.622Z,7.39
2022-12-24T13:21:32.443Z,5.24
2022-12-24T13:25:37.367Z,5.24
2022-12-24T13:29:31.717Z,4.06
2022-12-24T13:33:32.316Z,3.31
2022-12-24T13:37:31.724Z,3.31
2022-12-24T13:41:38.311Z,2.79
2022-12-24T13:45:32.567Z,2.45
2022-12-24T13:49:31.718Z,2.45
2022-12-24T13:53:38.919Z,2.18
2022-12-24T13:57:31.705Z,1.96
2022-12-24T14:01:36.741Z,1.96
2022-12-24T14:05:33.345Z,1.78
2022-12-24T14:09:32.316Z,1.66
2022-12-24T14:13:35.790Z,1.66
2022-12-24T14:17:32.564Z,1.55
2022-12-24T14:21:32.351Z,1527.88
2022-12-24T14:25:32.168Z,1527.88
2022-12-24T14:29:36.530Z,1441.87
2022-12-24T14:33:32.460Z,1.29
2022-12-24T14:37:34.671Z,1.29
2022-12-24T14:41:32.378Z,1.23
2022-12-24T14:45:32.482Z,1.23
2022-12-24T14:49:31.505Z,1.23
2022-12-24T14:54:27.003Z,1.23
2022-12-24T14:57:31.618Z,1.23
2022-12-24T15:01:37.433Z,1.23
2022-12-24T15:05:32.301Z,1.23
2022-12-24T15:09:31.839Z,1.23
2022-12-24T15:13:36.236Z,1.23
2022-12-24T15:17:32.691Z,1.23
2022-12-24T15:21:38.288Z,1.23
2022-12-24T15:25:31.998Z,1.23
2022-12-24T15:29:37.331Z,1.23
2022-12-24T15:33:32.106Z,1.23
2022-12-24T15:37:31.903Z,1.23
2022-12-24T15:41:31.806Z,1.23
2022-12-24T15:45:39.621Z,1.23
2022-12-24T15:49:32.125Z,1.23
2022-12-24T15:53:55.664Z,1.23
2022-12-24T15:57:31.524Z,1.23
2022-12-24T16:01:33.159Z,1.23
2022-12-24T16:05:32.830Z,1.23
2022-12-24T16:09:31.889Z,1.23
2022-12-24T16:13:34.218Z,1.23
2022-12-24T16:17:32.596Z,1.23
2022-12-24T16:21:31.979Z,1.23
2022-12-24T16:25:31.924Z,1.23
2022-12-24T16:29:42.077Z,1.23
2022-12-24T16:33:31.903Z,1.23
2022-12-24T16:37:32.275Z,1.23
2022-12-24T16:41:39.651Z,1.23
2022-12-24T16:45:32.134Z,1.23
2022-12-24T16:49:31.950Z,1.23
2022-12-24T16:53:39.985Z,1.23
2022-12-24T16:57:32.534Z,1.23
2022-12-24T17:01:35.700Z,1.23
2022-12-24T17:05:32.370Z,1.23
2022-12-24T17:09:31.839Z,1.23
2022-12-24T17:13:31.575Z,1.23
2022-12-24T17:17:32.632Z,1.23
2022-12-24T17:21:37.865Z,1.23
2022-12-24T17:25:32.156Z,1.23
2022-12-24T17:29:31.645Z,1.23
2022-12-24T17:33:37.545Z,1.23
2022-12-24T17:37:31.841Z,1.23
2022-12-24T17:41:31.625Z,1.23
2022-12-24T17:45:32.296Z,1.23
2022-12-24T17:49:32.289Z,1.23
2022-12-24T17:53:32.622Z,1.23
2022-12-24T17:57:32.106Z,1.23
2022-12-24T18:01:42.154Z,1.23
2022-12-24T18:05:32.528Z,1.23
2022-12-24T18:09:31.862Z,1.23
2022-12-24T18:13:41.627Z,1.23
2022-12-24T18:17:32.534Z,1.23
2022-12-24T18:21:41.128Z,1.23
2022-12-24T18:25:32.327Z,1.23
2022-12-24T18:29:31.860Z,1.23
2022-12-24T18:33:32.152Z,1.23
2022-12-24T18:37:39.827Z,1.23
2022-12-24T18:41:31.995Z,1.23
2022-12-24T18:45:33.438Z,1.23
2022-12-24T18:49:31.969Z,1.23
2022-12-24T18:53:36.768Z,1.23
2022-12-24T18:57:31.606Z,1.23
2022-12-24T19:01:36.287Z,1.23
2022-12-24T19:05:32.690Z,1.23
2022-12-24T19:10:17.048Z,1.23
2022-12-24T19:13:32.126Z,1.23
2022-12-24T19:17:32.909Z,1.23
2022-12-24T19:21:32.139Z,1.23
2022-12-24T19:25:31.566Z,1.23
2022-12-24T19:29:34.020Z,1.23
2022-12-24T19:33:31.880Z,1.23
2022-12-24T19:37:32.293Z,1.23
2022-12-24T19:41:32.017Z,1.23
2022-12-24T19:45:31.491Z,1.23
2022-12-24T19:49:32.256Z,1.23
2022-12-24T19:53:31.732Z,1.23
2022-12-24T19:57:31.670Z,1.23
2022-12-24T20:01:39.271Z,1.23
2022-12-24T20:05:31.484Z,1.23
2022-12-24T20:09:32.570Z,1.23
2022-12-24T20:13:39.639Z,1.23
2022-12-24T20:17:32.672Z,1.23
2022-12-24T20:21:31.618Z,1.23
2022-12-24T20:25:32.381Z,1.23
2022-12-24T20:29:32.172Z,1.23
2022-12-24T20:33:32.253Z,1.23
2022-12-24T20:37:32.189Z,1.23
2022-12-24T20:41:31.498Z,1.23
2022-12-24T20:45:32.224Z,1.23
2022-12-24T20:49:31.803Z,1.23
2022-12-24T20:53:31.894Z,1.23
2022-12-24T20:57:48.612Z,1.23
2022-12-24T21:01:36.015Z,1.23
2022-12-24T21:05:36.179Z,1.23
2022-12-24T21:09:32.097Z,1.23
2022-12-24T21:13:31.982Z,1.23
2022-12-24T21:17:38.485Z,1.23
2022-12-24T21:21:32.393Z,1.23
2022-12-24T21:25:31.705Z,1.23
2022-12-24T21:29:32.288Z,1.23
2022-12-24T21:33:37.793Z,1.23
2022-12-24T21:37:31.777Z,1.23
2022-12-24T21:41:32.363Z,1.23
2022-12-24T21:45:32.107Z,1.23
2022-12-24T21:49:32.358Z,1.23
2022-12-24T21:53:31.831Z,1.23
2022-12-24T21:57:32.481Z,1.23
2022-12-24T22:01:35.448Z,1.23
2022-12-24T22:05:32.375Z,1.23
2022-12-24T22:09:58.866Z,1.23
2022-12-24T22:13:32.671Z,1.23
2022-12-24T22:17:37.284Z,1.23
2022-12-24T22:21:31.796Z,1.23
2022-12-24T22:25:32.402Z,1.23
2022-12-24T22:29:32.340Z,1.23
2022-12-24T22:33:31.983Z,1.23
2022-12-24T22:37:31.696Z,1.23
2022-12-24T22:41:31.887Z,1.23
2022-12-24T22:45:34.239Z,1.23
2022-12-24T22:49:31.534Z,1.23
2022-12-24T22:53:32.151Z,1.23
2022-12-24T22:57:37.555Z,1.23
2022-12-24T23:01:32.432Z,1.23
2022-12-24T23:05:32.354Z,1.23
2022-12-24T23:09:31.961Z,1.23
2022-12-24T23:13:37.784Z,1.23
2022-12-24T23:17:32.453Z,1.23
2022-12-24T23:21:31.839Z,1.23
2022-12-24T23:25:31.481Z,1.23
2022-12-24T23:29:32.400Z,1.23
2022-12-24T23:33:31.884Z,1.23
2022-12-24T23:37:35.338Z,1.23
2022-12-24T23:41:32.391Z,1.23
2022-12-24T23:45:39.984Z,1.23
2022-12-24T23:49:31.625Z,1.23
2022-12-24T23:53:32.456Z,1.23
2022-12-24T23:57:31.892Z,1.23
